sensor_id;sensor_type;location;lat;lon;timestamp;P1;durP1;ratioP1;P2;durP2;ratioP2
10963;SDS011;5534;48.784;9.190;2022-12-19T00:01:49;30.77;;;14.80;;
10963;SDS011;5534;48.784;9.190;2022-12-19T00:04:14;28.20;;;15.27;;
10963;SDS011;5534;48.784;9.190;2022-12-19T00:06:43;31.60;;;15.37;;
10963;SDS011;5534;48.784;9.190;2022-12-19T00:09:10;31.40;;;15.23;;
10963;SDS011;5534;48.784;9.190;2022-12-19T00:11:36;31.97;;;14.90;;
10963;SDS011;5534;48.784;9.190;2022-12-19T00:14:03;31.57;;;15.50;;
10963;SDS011;5534;48.784;9.190;2022-12-19T00:16:29;26.07;;;14.73;;
10963;SDS011;5534;48.784;9.190;2022-12-19T00:18:56;31.53;;;14.40;;
10963;SDS011;5534;48.784;9.190;2022-12-19T00:21:24;32.43;;;15.63;;
10963;SDS011;5534;48.784;9.190;2022-12-19T00:23:52;32.47;;;15.43;;
10963;SDS011;5534;48.784;9.190;2022-12-19T00:26:26;31.40;;;15.10;;
10963;SDS011;5534;48.784;9.190;2022-12-19T00:28:54;29.80;;;14.80;;
10963;SDS011;5534;48.784;9.190;2022-12-19T00:31:22;34.57;;;15.30;;
10963;SDS011;5534;48.784;9.190;2022-12-19T00:33:49;28.43;;;15.37;;
10963;SDS011;5534;48.784;9.190;2022-12-19T00:36:19;31.93;;;14.77;;
10963;SDS011;5534;48.784;9.190;2022-12-19T00:38:47;31.40;;;15.97;;
10963;SDS011;5534;48.784;9.190;2022-12-19T00:41:16;36.87;;;16.07;;
10963;SDS011;5534;48.784;9.190;2022-12-19T00:43:44;29.73;;;15.03;;
10963;SDS011;5534;48.784;9.190;2022-12-19T00:46:11;30.80;;;15.20;;
10963;SDS011;5534;48.784;9.190;2022-12-19T00:48:39;36.33;;;17.30;;
10963;SDS011;5534;48.784;9.190;2022-12-19T00:51:06;29.07;;;14.50;;
10963;SDS011;5534;48.784;9.190;2022-12-19T00:53:35;32.33;;;14.67;;
10963;SDS011;5534;48.784;9.190;2022-12-19T00:56:03;28.20;;;14.13;;
10963;SDS011;5534;48.784;9.190;2022-12-19T00:58:30;30.53;;;15.23;;
10963;SDS011;5534;48.784;9.190;2022-12-19T01:00:56;29.40;;;15.30;;
10963;SDS011;5534;48.784;9.190;2022-12-19T01:03:23;30.30;;;15.60;;
10963;SDS011;5534;48.784;9.190;2022-12-19T01:05:50;31.13;;;15.23;;
10963;SDS011;5534;48.784;9.190;2022-12-19T01:08:16;30.40;;;14.87;;
10963;SDS011;5534;48.784;9.190;2022-12-19T01:10:45;33.17;;;15.90;;
10963;SDS011;5534;48.784;9.190;2022-12-19T01:13:11;29.70;;;15.57;;
10963;SDS011;5534;48.784;9.190;2022-12-19T01:15:38;30.27;;;14.83;;
10963;SDS011;5534;48.784;9.190;2022-12-19T01:18:05;28.53;;;15.17;;
10963;SDS011;5534;48.784;9.190;2022-12-19T01:20:38;28.87;;;14.73;;
10963;SDS011;5534;48.784;9.190;2022-12-19T01:23:05;33.17;;;15.87;;
10963;SDS011;5534;48.784;9.190;2022-12-19T01:25:35;31.17;;;15.03;;
10963;SDS011;5534;48.784;9.190;2022-12-19T01:28:02;29.80;;;14.70;;
10963;SDS011;5534;48.784;9.190;2022-12-19T01:30:29;33.10;;;15.73;;
10963;SDS011;5534;48.784;9.190;2022-12-19T01:32:55;32.57;;;15.60;;
10963;SDS011;5534;48.784;9.190;2022-12-19T01:35:22;30.07;;;15.10;;
10963;SDS011;5534;48.784;9.190;2022-12-19T01:37:49;30.17;;;15.20;;
10963;SDS011;5534;48.784;9.190;2022-12-19T01:40:16;31.10;;;15.57;;
10963;SDS011;5534;48.784;9.190;2022-12-19T01:42:42;31.03;;;15.87;;
10963;SDS011;5534;48.784;9.190;2022-12-19T01:47:43;28.13;;;15.37;;
10963;SDS011;5534;48.784;9.190;2022-12-19T01:50:17;31.87;;;15.50;;
10963;SDS011;5534;48.784;9.190;2022-12-19T01:52:47;31.13;;;15.47;;
10963;SDS011;5534;48.784;9.190;2022-12-19T01:55:13;31.03;;;15.87;;
10963;SDS011;5534;48.784;9.190;2022-12-19T01:57:39;32.73;;;14.77;;
10963;SDS011;5534;48.784;9.190;2022-12-19T02:00:06;32.13;;;15.97;;
10963;SDS011;5534;48.784;9.190;2022-12-19T02:02:40;33.57;;;16.37;;
10963;SDS011;5534;48.784;9.190;2022-12-19T02:05:10;33.33;;;15.73;;
10963;SDS011;5534;48.784;9.190;2022-12-19T02:07:36;32.30;;;15.03;;
10963;SDS011;5534;48.784;9.190;2022-12-19T02:10:04;33.40;;;16.03;;
10963;SDS011;5534;48.784;9.190;2022-12-19T02:12:30;34.67;;;17.23;;
10963;SDS011;5534;48.784;9.190;2022-12-19T02:15:02;32.17;;;15.40;;
10963;SDS011;5534;48.784;9.190;2022-12-19T02:20:50;30.80;;;15.67;;
10963;SDS011;5534;48.784;9.190;2022-12-19T02:26:25;31.07;;;15.70;;
10963;SDS011;5534;48.784;9.190;2022-12-19T02:29:22;35.90;;;16.50;;
10963;SDS011;5534;48.784;9.190;2022-12-19T02:37:44;30.17;;;16.40;;
10963;SDS011;5534;48.784;9.190;2022-12-19T02:40:32;36.47;;;18.27;;
10963;SDS011;5534;48.784;9.190;2022-12-19T02:43:04;31.37;;;16.83;;
10963;SDS011;5534;48.784;9.190;2022-12-19T02:45:33;33.07;;;16.80;;
10963;SDS011;5534;48.784;9.190;2022-12-19T02:48:01;36.37;;;17.03;;
10963;SDS011;5534;48.784;9.190;2022-12-19T02:50:36;34.63;;;16.83;;
10963;SDS011;5534;48.784;9.190;2022-12-19T02:53:11;32.90;;;16.87;;
10963;SDS011;5534;48.784;9.190;2022-12-19T02:55:59;32.23;;;16.83;;
10963;SDS011;5534;48.784;9.190;2022-12-19T02:58:43;35.20;;;17.43;;
10963;SDS011;5534;48.784;9.190;2022-12-19T03:04:18;33.83;;;18.00;;
10963;SDS011;5534;48.784;9.190;2022-12-19T03:07:01;35.10;;;17.47;;
10963;SDS011;5534;48.784;9.190;2022-12-19T03:12:27;32.70;;;16.90;;
10963;SDS011;5534;48.784;9.190;2022-12-19T03:15:03;35.30;;;17.67;;
10963;SDS011;5534;48.784;9.190;2022-12-19T03:17:33;33.40;;;18.57;;
10963;SDS011;5534;48.784;9.190;2022-12-19T03:20:04;35.43;;;18.27;;
10963;SDS011;5534;48.784;9.190;2022-12-19T03:22:35;39.40;;;18.37;;
10963;SDS011;5534;48.784;9.190;2022-12-19T03:25:01;34.07;;;16.90;;
10963;SDS011;5534;48.784;9.190;2022-12-19T03:27:28;34.03;;;17.70;;
10963;SDS011;5534;48.784;9.190;2022-12-19T03:30:05;36.70;;;18.60;;
10963;SDS011;5534;48.784;9.190;2022-12-19T03:32:34;33.20;;;17.23;;
10963;SDS011;5534;48.784;9.190;2022-12-19T03:35:06;33.73;;;18.43;;
10963;SDS011;5534;48.784;9.190;2022-12-19T03:37:46;32.23;;;16.67;;
10963;SDS011;5534;48.784;9.190;2022-12-19T03:40:15;33.80;;;17.17;;
10963;SDS011;5534;48.784;9.190;2022-12-19T03:42:43;39.57;;;18.90;;
10963;SDS011;5534;48.784;9.190;2022-12-19T03:45:39;32.57;;;16.70;;
10963;SDS011;5534;48.784;9.190;2022-12-19T03:48:41;36.00;;;16.83;;
10963;SDS011;5534;48.784;9.190;2022-12-19T03:51:27;34.73;;;16.77;;
10963;SDS011;5534;48.784;9.190;2022-12-19T03:54:01;36.00;;;17.23;;
10963;SDS011;5534;48.784;9.190;2022-12-19T04:01:48;34.87;;;17.40;;
10963;SDS011;5534;48.784;9.190;2022-12-19T04:04:15;31.73;;;16.10;;
10963;SDS011;5534;48.784;9.190;2022-12-19T04:06:45;35.77;;;17.07;;
10963;SDS011;5534;48.784;9.190;2022-12-19T04:09:14;35.33;;;16.30;;
10963;SDS011;5534;48.784;9.190;2022-12-19T04:11:44;30.67;;;16.80;;
10963;SDS011;5534;48.784;9.190;2022-12-19T04:14:16;31.60;;;16.43;;
10963;SDS011;5534;48.784;9.190;2022-12-19T04:16:53;33.67;;;17.03;;
10963;SDS011;5534;48.784;9.190;2022-12-19T04:19:30;33.50;;;17.00;;
10963;SDS011;5534;48.784;9.190;2022-12-19T04:22:11;31.17;;;16.57;;
10963;SDS011;5534;48.784;9.190;2022-12-19T04:24:42;31.10;;;16.87;;
10963;SDS011;5534;48.784;9.190;2022-12-19T04:27:09;30.17;;;16.47;;
10963;SDS011;5534;48.784;9.190;2022-12-19T04:29:37;32.57;;;16.13;;
10963;SDS011;5534;48.784;9.190;2022-12-19T04:32:04;29.80;;;16.07;;
10963;SDS011;5534;48.784;9.190;2022-12-19T04:34:32;36.60;;;16.47;;
10963;SDS011;5534;48.784;9.190;2022-12-19T04:36:58;31.93;;;16.47;;
10963;SDS011;5534;48.784;9.190;2022-12-19T04:39:26;32.93;;;16.53;;
10963;SDS011;5534;48.784;9.190;2022-12-19T04:41:53;32.40;;;16.07;;
10963;SDS011;5534;48.784;9.190;2022-12-19T04:44:18;29.80;;;15.50;;
10963;SDS011;5534;48.784;9.190;2022-12-19T04:46:44;31.63;;;15.93;;
10963;SDS011;5534;48.784;9.190;2022-12-19T04:49:10;33.97;;;17.50;;
10963;SDS011;5534;48.784;9.190;2022-12-19T04:51:35;37.30;;;16.60;;
10963;SDS011;5534;48.784;9.190;2022-12-19T04:54:01;41.20;;;17.37;;
10963;SDS011;5534;48.784;9.190;2022-12-19T04:56:27;30.93;;;15.50;;
10963;SDS011;5534;48.784;9.190;2022-12-19T04:58:56;31.17;;;16.13;;
10963;SDS011;5534;48.784;9.190;2022-12-19T05:01:22;30.90;;;15.60;;
10963;SDS011;5534;48.784;9.190;2022-12-19T05:03:48;32.83;;;16.10;;
10963;SDS011;5534;48.784;9.190;2022-12-19T05:06:14;33.70;;;16.80;;
10963;SDS011;5534;48.784;9.190;2022-12-19T05:08:41;31.73;;;16.13;;
10963;SDS011;5534;48.784;9.190;2022-12-19T05:11:08;32.77;;;16.10;;
10963;SDS011;5534;48.784;9.190;2022-12-19T05:13:35;29.73;;;16.00;;
10963;SDS011;5534;48.784;9.190;2022-12-19T05:16:02;28.13;;;15.03;;
10963;SDS011;5534;48.784;9.190;2022-12-19T05:18:30;32.00;;;15.70;;
10963;SDS011;5534;48.784;9.190;2022-12-19T05:20:56;32.33;;;15.40;;
10963;SDS011;5534;48.784;9.190;2022-12-19T05:23:22;30.50;;;15.53;;
10963;SDS011;5534;48.784;9.190;2022-12-19T05:25:48;33.03;;;16.13;;
10963;SDS011;5534;48.784;9.190;2022-12-19T05:28:14;33.07;;;16.17;;
10963;SDS011;5534;48.784;9.190;2022-12-19T05:30:41;35.07;;;17.03;;
10963;SDS011;5534;48.784;9.190;2022-12-19T05:33:07;34.53;;;16.23;;
10963;SDS011;5534;48.784;9.190;2022-12-19T05:35:33;30.87;;;16.30;;
10963;SDS011;5534;48.784;9.190;2022-12-19T05:37:59;37.40;;;16.73;;
10963;SDS011;5534;48.784;9.190;2022-12-19T05:40:25;37.23;;;16.87;;
10963;SDS011;5534;48.784;9.190;2022-12-19T05:42:51;35.10;;;17.63;;
10963;SDS011;5534;48.784;9.190;2022-12-19T05:45:17;33.27;;;17.00;;
10963;SDS011;5534;48.784;9.190;2022-12-19T05:47:43;33.23;;;15.93;;
10963;SDS011;5534;48.784;9.190;2022-12-19T05:50:11;39.47;;;18.00;;
10963;SDS011;5534;48.784;9.190;2022-12-19T05:52:37;37.43;;;18.70;;
10963;SDS011;5534;48.784;9.190;2022-12-19T05:55:04;39.00;;;17.73;;
10963;SDS011;5534;48.784;9.190;2022-12-19T05:57:32;31.97;;;15.73;;
10963;SDS011;5534;48.784;9.190;2022-12-19T06:00:01;34.97;;;16.80;;
10963;SDS011;5534;48.784;9.190;2022-12-19T06:02:30;32.20;;;16.43;;
10963;SDS011;5534;48.784;9.190;2022-12-19T06:04:57;33.17;;;16.80;;
10963;SDS011;5534;48.784;9.190;2022-12-19T06:07:23;30.53;;;16.87;;
10963;SDS011;5534;48.784;9.190;2022-12-19T06:09:49;31.90;;;15.83;;
10963;SDS011;5534;48.784;9.190;2022-12-19T06:12:15;36.57;;;16.67;;
10963;SDS011;5534;48.784;9.190;2022-12-19T06:14:40;31.90;;;17.47;;
10963;SDS011;5534;48.784;9.190;2022-12-19T06:17:07;36.87;;;16.73;;
10963;SDS011;5534;48.784;9.190;2022-12-19T06:19:33;30.80;;;15.90;;
10963;SDS011;5534;48.784;9.190;2022-12-19T06:21:59;33.73;;;16.50;;
10963;SDS011;5534;48.784;9.190;2022-12-19T06:24:24;31.73;;;15.50;;
10963;SDS011;5534;48.784;9.190;2022-12-19T06:26:50;36.93;;;17.57;;
10963;SDS011;5534;48.784;9.190;2022-12-19T06:29:16;34.40;;;16.20;;
10963;SDS011;5534;48.784;9.190;2022-12-19T06:31:42;33.60;;;16.90;;
10963;SDS011;5534;48.784;9.190;2022-12-19T06:34:08;34.43;;;17.07;;
10963;SDS011;5534;48.784;9.190;2022-12-19T06:36:34;29.27;;;15.40;;
10963;SDS011;5534;48.784;9.190;2022-12-19T06:39:00;33.00;;;17.13;;
10963;SDS011;5534;48.784;9.190;2022-12-19T06:41:27;31.20;;;15.67;;
10963;SDS011;5534;48.784;9.190;2022-12-19T06:44:12;26.87;;;15.37;;
10963;SDS011;5534;48.784;9.190;2022-12-19T06:46:40;30.30;;;16.20;;
10963;SDS011;5534;48.784;9.190;2022-12-19T06:49:06;30.83;;;15.40;;
10963;SDS011;5534;48.784;9.190;2022-12-19T06:51:32;29.37;;;15.13;;
10963;SDS011;5534;48.784;9.190;2022-12-19T06:53:59;31.93;;;15.70;;
10963;SDS011;5534;48.784;9.190;2022-12-19T06:56:25;30.70;;;15.37;;
10963;SDS011;5534;48.784;9.190;2022-12-19T06:58:51;32.43;;;16.63;;
10963;SDS011;5534;48.784;9.190;2022-12-19T07:03:48;35.23;;;16.60;;
10963;SDS011;5534;48.784;9.190;2022-12-19T07:06:14;29.80;;;15.53;;
10963;SDS011;5534;48.784;9.190;2022-12-19T07:08:40;33.77;;;16.33;;
10963;SDS011;5534;48.784;9.190;2022-12-19T07:11:06;33.87;;;17.03;;
10963;SDS011;5534;48.784;9.190;2022-12-19T07:13:32;29.70;;;15.47;;
10963;SDS011;5534;48.784;9.190;2022-12-19T07:15:58;32.17;;;16.20;;
10963;SDS011;5534;48.784;9.190;2022-12-19T07:18:28;32.17;;;16.63;;
10963;SDS011;5534;48.784;9.190;2022-12-19T07:20:55;31.17;;;16.20;;
10963;SDS011;5534;48.784;9.190;2022-12-19T07:23:21;31.73;;;15.73;;
10963;SDS011;5534;48.784;9.190;2022-12-19T07:25:48;35.80;;;17.23;;
10963;SDS011;5534;48.784;9.190;2022-12-19T07:28:14;32.57;;;16.40;;
10963;SDS011;5534;48.784;9.190;2022-12-19T07:30:40;31.37;;;16.20;;
10963;SDS011;5534;48.784;9.190;2022-12-19T07:33:06;30.30;;;16.10;;
10963;SDS011;5534;48.784;9.190;2022-12-19T07:35:32;33.30;;;16.03;;
10963;SDS011;5534;48.784;9.190;2022-12-19T07:38:01;31.40;;;16.73;;
10963;SDS011;5534;48.784;9.190;2022-12-19T07:40:29;32.87;;;16.93;;
10963;SDS011;5534;48.784;9.190;2022-12-19T07:42:59;32.27;;;15.87;;
10963;SDS011;5534;48.784;9.190;2022-12-19T07:45:26;36.83;;;17.87;;
10963;SDS011;5534;48.784;9.190;2022-12-19T07:47:52;34.37;;;18.20;;
10963;SDS011;5534;48.784;9.190;2022-12-19T07:50:18;35.70;;;17.63;;
10963;SDS011;5534;48.784;9.190;2022-12-19T07:52:44;33.13;;;16.40;;
10963;SDS011;5534;48.784;9.190;2022-12-19T07:55:09;34.37;;;16.87;;
10963;SDS011;5534;48.784;9.190;2022-12-19T07:57:35;34.87;;;17.13;;
10963;SDS011;5534;48.784;9.190;2022-12-19T08:00:02;35.40;;;16.77;;
10963;SDS011;5534;48.784;9.190;2022-12-19T08:02:29;33.20;;;16.53;;
10963;SDS011;5534;48.784;9.190;2022-12-19T08:04:56;38.20;;;17.67;;
10963;SDS011;5534;48.784;9.190;2022-12-19T08:07:22;34.67;;;16.93;;
10963;SDS011;5534;48.784;9.190;2022-12-19T08:09:48;33.37;;;17.37;;
10963;SDS011;5534;48.784;9.190;2022-12-19T08:12:14;29.83;;;15.73;;
10963;SDS011;5534;48.784;9.190;2022-12-19T08:14:41;29.53;;;17.17;;
10963;SDS011;5534;48.784;9.190;2022-12-19T08:17:06;33.47;;;16.33;;
10963;SDS011;5534;48.784;9.190;2022-12-19T08:19:33;32.13;;;17.37;;
10963;SDS011;5534;48.784;9.190;2022-12-19T08:22:01;32.77;;;16.83;;
10963;SDS011;5534;48.784;9.190;2022-12-19T08:24:26;30.87;;;16.07;;
10963;SDS011;5534;48.784;9.190;2022-12-19T08:26:55;35.87;;;17.33;;
10963;SDS011;5534;48.784;9.190;2022-12-19T08:29:21;35.53;;;18.03;;
10963;SDS011;5534;48.784;9.190;2022-12-19T08:31:47;38.72;;;21.67;;
10963;SDS011;5534;48.784;9.190;2022-12-19T08:34:13;32.73;;;17.63;;
10963;SDS011;5534;48.784;9.190;2022-12-19T08:36:40;30.00;;;15.53;;
10963;SDS011;5534;48.784;9.190;2022-12-19T08:39:05;35.10;;;16.87;;
10963;SDS011;5534;48.784;9.190;2022-12-19T08:41:31;30.00;;;16.00;;
10963;SDS011;5534;48.784;9.190;2022-12-19T08:43:57;26.57;;;15.50;;
10963;SDS011;5534;48.784;9.190;2022-12-19T08:46:23;29.23;;;15.30;;
10963;SDS011;5534;48.784;9.190;2022-12-19T08:48:49;32.13;;;16.63;;
10963;SDS011;5534;48.784;9.190;2022-12-19T08:51:15;32.67;;;17.00;;
10963;SDS011;5534;48.784;9.190;2022-12-19T08:53:42;30.67;;;15.20;;
10963;SDS011;5534;48.784;9.190;2022-12-19T08:56:10;27.30;;;15.00;;
10963;SDS011;5534;48.784;9.190;2022-12-19T08:58:43;27.13;;;14.17;;
10963;SDS011;5534;48.784;9.190;2022-12-19T09:01:11;29.73;;;14.17;;
10963;SDS011;5534;48.784;9.190;2022-12-19T09:03:40;31.70;;;15.87;;
10963;SDS011;5534;48.784;9.190;2022-12-19T09:06:06;26.43;;;15.23;;
10963;SDS011;5534;48.784;9.190;2022-12-19T09:08:35;31.10;;;14.93;;
10963;SDS011;5534;48.784;9.190;2022-12-19T09:11:05;28.80;;;15.57;;
10963;SDS011;5534;48.784;9.190;2022-12-19T09:13:33;30.87;;;15.67;;
10963;SDS011;5534;48.784;9.190;2022-12-19T09:18:31;34.97;;;15.87;;
10963;SDS011;5534;48.784;9.190;2022-12-19T09:20:57;25.87;;;15.57;;
10963;SDS011;5534;48.784;9.190;2022-12-19T09:23:26;32.73;;;17.13;;
10963;SDS011;5534;48.784;9.190;2022-12-19T09:25:53;31.50;;;16.50;;
10963;SDS011;5534;48.784;9.190;2022-12-19T09:28:19;32.87;;;16.50;;
10963;SDS011;5534;48.784;9.190;2022-12-19T09:30:53;34.53;;;16.90;;
10963;SDS011;5534;48.784;9.190;2022-12-19T09:33:20;35.03;;;16.97;;
10963;SDS011;5534;48.784;9.190;2022-12-19T09:35:50;34.43;;;17.10;;
10963;SDS011;5534;48.784;9.190;2022-12-19T09:38:16;37.47;;;16.10;;
10963;SDS011;5534;48.784;9.190;2022-12-19T09:41:32;36.10;;;15.83;;
10963;SDS011;5534;48.784;9.190;2022-12-19T09:46:54;32.40;;;16.50;;
10963;SDS011;5534;48.784;9.190;2022-12-19T09:49:26;33.60;;;16.50;;
10963;SDS011;5534;48.784;9.190;2022-12-19T09:52:04;33.33;;;16.80;;
10963;SDS011;5534;48.784;9.190;2022-12-19T09:54:40;35.50;;;17.80;;
10963;SDS011;5534;48.784;9.190;2022-12-19T09:57:22;34.43;;;16.80;;
10963;SDS011;5534;48.784;9.190;2022-12-19T10:00:07;34.40;;;15.67;;
10963;SDS011;5534;48.784;9.190;2022-12-19T10:02:44;35.63;;;17.60;;
10963;SDS011;5534;48.784;9.190;2022-12-19T10:05:30;34.83;;;16.23;;
10963;SDS011;5534;48.784;9.190;2022-12-19T10:08:04;33.20;;;15.90;;
10963;SDS011;5534;48.784;9.190;2022-12-19T10:10:52;33.97;;;17.53;;
10963;SDS011;5534;48.784;9.190;2022-12-19T10:18:55;35.03;;;18.73;;
10963;SDS011;5534;48.784;9.190;2022-12-19T10:27:00;32.00;;;17.13;;
10963;SDS011;5534;48.784;9.190;2022-12-19T10:35:30;32.23;;;15.83;;
10963;SDS011;5534;48.784;9.190;2022-12-19T10:41:35;28.70;;;14.77;;
10963;SDS011;5534;48.784;9.190;2022-12-19T10:51:41;32.73;;;16.00;;
10963;SDS011;5534;48.784;9.190;2022-12-19T10:57:26;35.60;;;20.50;;
10963;SDS011;5534;48.784;9.190;2022-12-19T10:59:54;31.47;;;17.07;;
10963;SDS011;5534;48.784;9.190;2022-12-19T11:02:39;31.00;;;17.27;;
10963;SDS011;5534;48.784;9.190;2022-12-19T11:05:21;29.10;;;15.43;;
10963;SDS011;5534;48.784;9.190;2022-12-19T11:10:38;34.03;;;16.17;;
10963;SDS011;5534;48.784;9.190;2022-12-19T11:13:17;30.90;;;16.23;;
10963;SDS011;5534;48.784;9.190;2022-12-19T11:16:03;31.43;;;16.83;;
10963;SDS011;5534;48.784;9.190;2022-12-19T11:21:18;30.97;;;15.50;;
10963;SDS011;5534;48.784;9.190;2022-12-19T11:29:03;26.37;;;15.63;;
10963;SDS011;5534;48.784;9.190;2022-12-19T11:31:42;29.17;;;15.73;;
10963;SDS011;5534;48.784;9.190;2022-12-19T11:34:13;33.67;;;16.97;;
10963;SDS011;5534;48.784;9.190;2022-12-19T11:36:53;28.20;;;15.90;;
10963;SDS011;5534;48.784;9.190;2022-12-19T11:42:23;33.30;;;18.30;;
10963;SDS011;5534;48.784;9.190;2022-12-19T11:45:02;30.63;;;17.47;;
10963;SDS011;5534;48.784;9.190;2022-12-19T11:47:52;33.23;;;18.50;;
10963;SDS011;5534;48.784;9.190;2022-12-19T11:50:24;38.57;;;18.63;;
10963;SDS011;5534;48.784;9.190;2022-12-19T11:55:50;31.83;;;17.33;;
10963;SDS011;5534;48.784;9.190;2022-12-19T11:58:29;28.37;;;16.83;;
10963;SDS011;5534;48.784;9.190;2022-12-19T12:06:32;29.30;;;15.50;;
10963;SDS011;5534;48.784;9.190;2022-12-19T12:11:50;30.63;;;17.77;;
10963;SDS011;5534;48.784;9.190;2022-12-19T12:14:21;25.53;;;15.27;;
10963;SDS011;5534;48.784;9.190;2022-12-19T12:17:06;26.63;;;16.07;;
10963;SDS011;5534;48.784;9.190;2022-12-19T12:22:32;28.73;;;16.23;;
10963;SDS011;5534;48.784;9.190;2022-12-19T12:27:51;28.73;;;15.80;;
10963;SDS011;5534;48.784;9.190;2022-12-19T12:33:24;29.13;;;17.50;;
10963;SDS011;5534;48.784;9.190;2022-12-19T12:36:00;27.40;;;15.53;;
10963;SDS011;5534;48.784;9.190;2022-12-19T12:41:23;35.03;;;19.77;;
10963;SDS011;5534;48.784;9.190;2022-12-19T12:44:15;31.50;;;15.73;;
10963;SDS011;5534;48.784;9.190;2022-12-19T12:46:43;28.73;;;17.00;;
10963;SDS011;5534;48.784;9.190;2022-12-19T12:52:24;30.27;;;18.37;;
10963;SDS011;5534;48.784;9.190;2022-12-19T12:54:56;26.97;;;16.57;;
10963;SDS011;5534;48.784;9.190;2022-12-19T13:02:41;30.47;;;16.27;;
10963;SDS011;5534;48.784;9.190;2022-12-19T13:08:01;28.40;;;17.17;;
10963;SDS011;5534;48.784;9.190;2022-12-19T13:10:53;28.67;;;17.07;;
10963;SDS011;5534;48.784;9.190;2022-12-19T13:13:20;33.10;;;17.73;;
10963;SDS011;5534;48.784;9.190;2022-12-19T13:19:15;33.40;;;17.50;;
10963;SDS011;5534;48.784;9.190;2022-12-19T13:24:28;29.67;;;16.80;;
10963;SDS011;5534;48.784;9.190;2022-12-19T13:27:29;29.60;;;17.93;;
10963;SDS011;5534;48.784;9.190;2022-12-19T13:29:54;27.27;;;16.83;;
10963;SDS011;5534;48.784;9.190;2022-12-19T13:32:23;30.97;;;17.10;;
10963;SDS011;5534;48.784;9.190;2022-12-19T13:35:00;29.47;;;17.30;;
10963;SDS011;5534;48.784;9.190;2022-12-19T13:37:29;30.93;;;18.27;;
10963;SDS011;5534;48.784;9.190;2022-12-19T13:42:24;35.33;;;18.33;;
10963;SDS011;5534;48.784;9.190;2022-12-19T13:45:14;30.87;;;16.70;;
10963;SDS011;5534;48.784;9.190;2022-12-19T13:47:49;27.40;;;16.87;;
10963;SDS011;5534;48.784;9.190;2022-12-19T13:50:29;31.43;;;17.13;;
10963;SDS011;5534;48.784;9.190;2022-12-19T13:53:13;30.23;;;15.30;;
10963;SDS011;5534;48.784;9.190;2022-12-19T13:55:40;29.70;;;16.73;;
10963;SDS011;5534;48.784;9.190;2022-12-19T13:58:13;26.80;;;17.30;;
10963;SDS011;5534;48.784;9.190;2022-12-19T14:00:51;27.17;;;16.07;;
10963;SDS011;5534;48.784;9.190;2022-12-19T14:03:20;27.67;;;16.33;;
10963;SDS011;5534;48.784;9.190;2022-12-19T14:05:57;28.17;;;16.63;;
10963;SDS011;5534;48.784;9.190;2022-12-19T14:08:31;27.30;;;16.20;;
10963;SDS011;5534;48.784;9.190;2022-12-19T14:10:57;30.43;;;17.47;;
10963;SDS011;5534;48.784;9.190;2022-12-19T14:13:23;28.07;;;16.47;;
10963;SDS011;5534;48.784;9.190;2022-12-19T14:16:15;32.37;;;17.00;;
10963;SDS011;5534;48.784;9.190;2022-12-19T14:18:47;30.13;;;16.97;;
10963;SDS011;5534;48.784;9.190;2022-12-19T14:21:16;29.47;;;15.87;;
10963;SDS011;5534;48.784;9.190;2022-12-19T14:26:59;28.23;;;17.47;;
10963;SDS011;5534;48.784;9.190;2022-12-19T14:29:32;30.13;;;17.03;;
10963;SDS011;5534;48.784;9.190;2022-12-19T14:32:03;30.53;;;16.63;;
10963;SDS011;5534;48.784;9.190;2022-12-19T14:34:30;26.00;;;15.73;;
10963;SDS011;5534;48.784;9.190;2022-12-19T14:36:58;24.80;;;14.47;;
10963;SDS011;5534;48.784;9.190;2022-12-19T14:39:29;24.40;;;13.70;;
10963;SDS011;5534;48.784;9.190;2022-12-19T14:42:01;27.93;;;15.20;;
10963;SDS011;5534;48.784;9.190;2022-12-19T14:44:57;20.30;;;12.43;;
10963;SDS011;5534;48.784;9.190;2022-12-19T14:47:24;21.13;;;11.67;;
10963;SDS011;5534;48.784;9.190;2022-12-19T14:49:58;17.03;;;9.70;;
10963;SDS011;5534;48.784;9.190;2022-12-19T14:52:38;15.43;;;9.33;;
10963;SDS011;5534;48.784;9.190;2022-12-19T14:55:25;15.77;;;8.87;;
10963;SDS011;5534;48.784;9.190;2022-12-19T14:57:55;15.20;;;8.30;;
10963;SDS011;5534;48.784;9.190;2022-12-19T15:00:23;16.27;;;8.80;;
10963;SDS011;5534;48.784;9.190;2022-12-19T15:02:54;13.07;;;8.47;;
10963;SDS011;5534;48.784;9.190;2022-12-19T15:05:22;12.73;;;7.90;;
10963;SDS011;5534;48.784;9.190;2022-12-19T15:07:49;14.73;;;7.67;;
10963;SDS011;5534;48.784;9.190;2022-12-19T15:10:29;14.53;;;7.93;;
10963;SDS011;5534;48.784;9.190;2022-12-19T15:15:44;13.07;;;7.03;;
10963;SDS011;5534;48.784;9.190;2022-12-19T15:20:58;11.83;;;6.40;;
10963;SDS011;5534;48.784;9.190;2022-12-19T15:23:26;10.30;;;6.57;;
10963;SDS011;5534;48.784;9.190;2022-12-19T15:25:53;9.43;;;6.60;;
10963;SDS011;5534;48.784;9.190;2022-12-19T15:28:22;12.20;;;7.30;;
10963;SDS011;5534;48.784;9.190;2022-12-19T15:30:52;14.73;;;7.77;;
10963;SDS011;5534;48.784;9.190;2022-12-19T15:33:26;12.67;;;7.00;;
10963;SDS011;5534;48.784;9.190;2022-12-19T15:35:52;15.47;;;7.93;;
10963;SDS011;5534;48.784;9.190;2022-12-19T15:38:17;12.20;;;7.20;;
10963;SDS011;5534;48.784;9.190;2022-12-19T15:40:43;11.40;;;6.80;;
10963;SDS011;5534;48.784;9.190;2022-12-19T15:43:27;11.63;;;7.47;;
10963;SDS011;5534;48.784;9.190;2022-12-19T15:45:56;10.43;;;7.13;;
10963;SDS011;5534;48.784;9.190;2022-12-19T15:48:23;11.90;;;8.03;;
10963;SDS011;5534;48.784;9.190;2022-12-19T15:50:50;13.00;;;7.43;;
10963;SDS011;5534;48.784;9.190;2022-12-19T15:53:27;11.47;;;6.40;;
10963;SDS011;5534;48.784;9.190;2022-12-19T15:55:55;9.30;;;5.83;;
10963;SDS011;5534;48.784;9.190;2022-12-19T15:58:23;12.60;;;7.20;;
10963;SDS011;5534;48.784;9.190;2022-12-19T16:00:52;9.97;;;6.13;;
10963;SDS011;5534;48.784;9.190;2022-12-19T16:03:23;10.73;;;7.10;;
10963;SDS011;5534;48.784;9.190;2022-12-19T16:05:50;11.97;;;7.03;;
10963;SDS011;5534;48.784;9.190;2022-12-19T16:08:17;11.27;;;7.77;;
10963;SDS011;5534;48.784;9.190;2022-12-19T16:10:46;10.53;;;6.97;;
10963;SDS011;5534;48.784;9.190;2022-12-19T16:13:28;12.53;;;6.70;;
10963;SDS011;5534;48.784;9.190;2022-12-19T16:15:55;12.60;;;7.33;;
10963;SDS011;5534;48.784;9.190;2022-12-19T16:18:22;20.57;;;12.13;;
10963;SDS011;5534;48.784;9.190;2022-12-19T16:20:48;22.93;;;14.23;;
10963;SDS011;5534;48.784;9.190;2022-12-19T16:23:14;23.13;;;13.87;;
10963;SDS011;5534;48.784;9.190;2022-12-19T16:25:44;21.33;;;13.27;;
10963;SDS011;5534;48.784;9.190;2022-12-19T16:28:16;20.20;;;12.77;;
10963;SDS011;5534;48.784;9.190;2022-12-19T16:30:49;20.93;;;12.33;;
10963;SDS011;5534;48.784;9.190;2022-12-19T16:33:20;16.77;;;9.73;;
10963;SDS011;5534;48.784;9.190;2022-12-19T16:35:48;14.60;;;9.90;;
10963;SDS011;5534;48.784;9.190;2022-12-19T16:38:14;19.37;;;10.90;;
10963;SDS011;5534;48.784;9.190;2022-12-19T16:40:41;18.60;;;10.97;;
10963;SDS011;5534;48.784;9.190;2022-12-19T16:43:12;21.60;;;12.13;;
10963;SDS011;5534;48.784;9.190;2022-12-19T16:45:41;20.83;;;11.77;;
10963;SDS011;5534;48.784;9.190;2022-12-19T16:50:45;26.07;;;12.67;;
10963;SDS011;5534;48.784;9.190;2022-12-19T16:53:11;19.27;;;11.83;;
10963;SDS011;5534;48.784;9.190;2022-12-19T16:55:38;20.03;;;10.67;;
10963;SDS011;5534;48.784;9.190;2022-12-19T16:58:04;19.30;;;10.00;;
10963;SDS011;5534;48.784;9.190;2022-12-19T17:00:30;17.97;;;9.53;;
10963;SDS011;5534;48.784;9.190;2022-12-19T17:03:02;17.33;;;9.63;;
10963;SDS011;5534;48.784;9.190;2022-12-19T17:05:34;18.63;;;11.00;;
10963;SDS011;5534;48.784;9.190;2022-12-19T17:08:00;31.00;;;14.80;;